Time;durP1;ratioP1;P1;durP2;ratioP2;P2;SDS_P1;SDS_P2;PMS_P1;PMS_P2;Temp;Humidity;BMP_temperature;BMP_pressure;BME280_temperature;BME280_humidity;BME280_pressure;Samples;Min_cycle;Max_cycle;Signal;HPM_P1;HPM_P2
2022/01/04 00:00:58;;;;;;;;;;;;;;;20.40;51.93;99429.00;2090584;28;19915;-38
2022/01/04 00:01:59;;;;;;;;;;;;;;;20.39;51.83;99421.84;2093829;28;19952;-38
2022/01/04 00:02:59;;;;;;;;;;;;;;;20.39;52.04;99422.69;2086992;28;19905;-38
2022/01/04 00:03:59;;;;;;;;;;;;;;;20.38;52.03;99418.22;2089388;28;19908;-38
2022/01/04 00:05:00;;;;;;;;;;;;;;;20.36;51.74;99417.56;2088691;28;20507;-38
2022/01/04 00:06:00;;;;;;;;;;;;;;;20.38;52.03;99415.47;2091421;28;19923;-38
2022/01/04 00:07:01;;;;;;;;;;;;;;;20.37;51.88;99408.31;2088855;28;19976;-38
2022/01/04 00:08:02;;;;;;;;;;;;;;;20.38;51.80;99415.47;2091837;28;19956;-38
2022/01/04 00:09:04;;;;;;;;;;;;;;;20.39;51.78;99410.88;2089631;28;20034;-38
2022/01/04 00:10:08;;;;;;;;;;;;;;;20.41;51.87;99403.34;2090419;28;19909;-39
2022/01/04 00:11:19;;;;;;;;;;;;;;;20.42;51.87;99403.16;2095452;28;19927;-38
2022/01/04 00:13:38;;;;;;;;;;;;;;;20.47;51.82;99400.75;2080930;28;19916;-39
2022/01/04 00:14:39;;;;;;;;;;;;;;;20.49;51.81;99398.69;2092956;28;19936;-39
2022/01/04 00:15:42;;;;;;;;;;;;;;;20.52;51.55;99394.75;2088486;28;19923;-40
2022/01/04 00:16:43;;;;;;;;;;;;;;;20.54;51.41;99395.44;2093267;28;19919;-39
2022/01/04 00:17:43;;;;;;;;;;;;;;;20.58;51.55;99395.94;2091259;28;20246;-38
2022/01/04 00:18:46;;;;;;;;;;;;;;;20.61;51.37;99391.00;2084318;28;19921;-39
2022/01/04 00:19:46;;;;;;;;;;;;;;;20.62;51.50;99395.44;2091005;28;19916;-39
2022/01/04 00:20:47;;;;;;;;;;;;;;;20.65;51.21;99388.75;2092995;28;20311;-39
2022/01/04 00:21:47;;;;;;;;;;;;;;;20.68;51.31;99393.88;2087499;28;19908;-39
2022/01/04 00:22:48;;;;;;;;;;;;;;;20.71;51.05;99390.78;2092436;28;19912;-39
2022/01/04 00:23:48;;;;;;;;;;;;;;;20.74;51.09;99390.41;2090899;28;19935;-38
2022/01/04 00:24:49;;;;;;;;;;;;;;;20.76;51.02;99385.63;2091667;28;19983;-39
2022/01/04 00:25:49;;;;;;;;;;;;;;;20.78;50.97;99389.03;2092341;28;19962;-38
2022/01/04 00:26:49;;;;;;;;;;;;;;;20.81;50.92;99383.19;2091273;28;20171;-39
2022/01/04 00:27:50;;;;;;;;;;;;;;;20.84;50.64;99371.88;2093311;28;20153;-39
2022/01/04 00:28:50;;;;;;;;;;;;;;;20.86;50.63;99367.09;2095086;28;20502;-38
2022/01/04 00:29:50;;;;;;;;;;;;;;;20.90;50.45;99375.81;2093654;28;20178;-38
2022/01/04 00:30:51;;;;;;;;;;;;;;;20.92;50.40;99373.72;2093662;28;19915;-39
2022/01/04 00:31:51;;;;;;;;;;;;;;;20.94;50.40;99371.66;2087932;28;20459;-39
2022/01/04 00:32:51;;;;;;;;;;;;;;;20.96;50.37;99380.56;2088205;28;19987;-39
2022/01/04 00:33:52;;;;;;;;;;;;;;;20.98;50.27;99379.34;2093219;28;19919;-39
2022/01/04 00:34:52;;;;;;;;;;;;;;;21.01;50.10;99371.81;2094531;28;19930;-39
2022/01/04 00:35:53;;;;;;;;;;;;;;;21.03;50.17;99372.47;2091339;28;19908;-38
2022/01/04 00:36:53;;;;;;;;;;;;;;;21.04;50.00;99376.91;2093370;28;19926;-38
2022/01/04 00:37:54;;;;;;;;;;;;;;;21.06;50.16;99374.84;2092519;28;19908;-39
2022/01/04 00:38:54;;;;;;;;;;;;;;;21.08;50.06;99375.53;2093627;28;19908;-39
2022/01/04 00:39:54;;;;;;;;;;;;;;;21.10;49.91;99365.25;2095975;28;19908;-39
2022/01/04 00:40:55;;;;;;;;;;;;;;;21.10;49.87;99366.09;2087313;28;20616;-39
2022/01/04 00:41:55;;;;;;;;;;;;;;;21.13;50.09;99364.88;2091990;28;19909;-38
2022/01/04 00:42:58;;;;;;;;;;;;;;;21.13;50.13;99360.25;2092376;28;20794;-38
2022/01/04 00:43:58;;;;;;;;;;;;;;;21.15;49.89;99362.81;2094306;28;19912;-38
2022/01/04 00:44:58;;;;;;;;;;;;;;;21.16;49.95;99362.63;2096663;28;19938;-39
2022/01/04 00:45:59;;;;;;;;;;;;;;;21.17;49.87;99349.78;2091723;28;20161;-39
2022/01/04 00:47:00;;;;;;;;;;;;;;;21.19;49.68;99354.06;2092799;28;19908;-39
2022/01/04 00:49:10;;;;;;;;;;;;;;;21.23;50.11;99349.06;2092819;28;19912;-39
2022/01/04 00:50:10;;;;;;;;;;;;;;;21.25;49.90;99346.13;2094388;28;19941;-39
2022/01/04 00:51:10;;;;;;;;;;;;;;;21.26;49.89;99340.47;2091189;28;20165;-38
2022/01/04 00:52:16;;;;;;;;;;;;;;;21.26;49.99;99337.72;2092072;28;20348;-39
2022/01/04 00:53:17;;;;;;;;;;;;;;;21.29;49.71;99337.38;2080707;28;19917;-39
2022/01/04 00:54:17;;;;;;;;;;;;;;;21.29;49.88;99340.13;2090657;28;19939;-39
2022/01/04 00:55:18;;;;;;;;;;;;;;;21.30;49.85;99339.06;2100057;28;20457;-39
2022/01/04 00:56:18;;;;;;;;;;;;;;;21.31;50.02;99340.78;2093412;28;19948;-38
2022/01/04 00:57:19;;;;;;;;;;;;;;;21.31;49.96;99343.53;2090397;28;20584;-39
2022/01/04 00:58:19;;;;;;;;;;;;;;;21.34;49.62;99340.41;2093551;28;19916;-40
2022/01/04 00:59:20;;;;;;;;;;;;;;;21.35;49.35;99344.84;2094717;28;19916;-39
2022/01/04 01:00:20;;;;;;;;;;;;;;;21.36;49.42;99343.84;2093103;28;19912;-39
2022/01/04 01:01:20;;;;;;;;;;;;;;;21.37;49.62;99344.69;2086812;28;20286;-39
2022/01/04 01:02:21;;;;;;;;;;;;;;;21.38;49.49;99336.25;2097048;28;20413;-39
2022/01/04 01:03:21;;;;;;;;;;;;;;;21.39;49.55;99338.00;2096700;28;20686;-38
2022/01/04 01:04:22;;;;;;;;;;;;;;;21.40;49.29;99338.84;2092261;28;19912;-38
2022/01/04 01:05:24;;;;;;;;;;;;;;;21.42;49.40;99335.94;2094929;28;19926;-39
2022/01/04 01:06:25;;;;;;;;;;;;;;;21.42;49.20;99335.94;2094125;28;20322;-39
2022/01/04 01:07:25;;;;;;;;;;;;;;;21.42;49.17;99336.78;2092525;28;19916;-39
2022/01/04 01:08:25;;;;;;;;;;;;;;;21.42;49.35;99344.16;2090967;28;19916;-39
2022/01/04 01:09:30;;;;;;;;;;;;;;;21.45;49.51;99341.03;2090152;28;19912;-38
2022/01/04 01:11:34;;;;;;;;;;;;;;;21.39;49.45;99343.50;2086673;28;19932;-39
2022/01/04 01:12:34;;;;;;;;;;;;;;;21.16;49.44;99331.63;2090232;28;19926;-39
2022/01/04 01:13:35;;;;;;;;;;;;;;;20.93;49.33;99343.41;2092027;28;19985;-39
2022/01/04 01:14:35;;;;;;;;;;;;;;;20.76;49.80;99341.81;2093404;28;19983;-39
2022/01/04 01:15:37;;;;;;;;;;;;;;;20.64;50.29;99340.50;2094798;28;19978;-39
2022/01/04 01:16:38;;;;;;;;;;;;;;;20.52;50.16;99343.56;2094028;28;19920;-39
2022/01/04 01:17:38;;;;;;;;;;;;;;;20.45;50.69;99339.00;2086001;28;19912;-39
2022/01/04 01:18:39;;;;;;;;;;;;;;;20.37;50.68;99334.41;2087191;28;20202;-38
2022/01/04 01:19:39;;;;;;;;;;;;;;;20.30;50.96;99327.94;2093458;28;20171;-39
2022/01/04 01:20:39;;;;;;;;;;;;;;;20.27;51.27;99326.41;2094372;28;19916;-39
2022/01/04 01:21:40;;;;;;;;;;;;;;;20.23;51.20;99321.44;2092543;28;20181;-39
2022/01/04 01:22:41;;;;;;;;;;;;;;;20.19;51.57;99315.50;2094156;28;20811;-39
2022/01/04 01:23:41;;;;;;;;;;;;;;;20.16;51.66;99317.72;2092651;28;19916;-39
2022/01/04 01:24:41;;;;;;;;;;;;;;;20.13;51.59;99322.50;2091763;28;19920;-39
2022/01/04 01:25:42;;;;;;;;;;;;;;;20.11;51.80;99321.84;2077172;28;19975;-39
2022/01/04 01:26:42;;;;;;;;;;;;;;;20.10;51.90;99320.13;2079053;28;20302;-39
2022/01/04 01:27:43;;;;;;;;;;;;;;;20.08;51.98;99322.16;2084675;28;20101;-39
2022/01/04 01:28:43;;;;;;;;;;;;;;;20.07;51.88;99312.28;2091415;28;19982;-39
2022/01/04 01:29:43;;;;;;;;;;;;;;;20.05;52.08;99308.84;2090168;28;20975;-39
2022/01/04 01:30:44;;;;;;;;;;;;;;;20.04;52.06;99307.16;2093851;28;19922;-38
2022/01/04 01:31:45;;;;;;;;;;;;;;;20.02;52.20;99306.47;2091703;28;20240;-39
2022/01/04 01:32:45;;;;;;;;;;;;;;;20.00;52.20;99297.59;2092784;28;19927;-39
2022/01/04 01:33:45;;;;;;;;;;;;;;;20.01;52.33;99299.28;2090844;28;19916;-39
2022/01/04 01:34:45;;;;;;;;;;;;;;;19.99;52.39;99303.22;2094070;28;19920;-39
2022/01/04 01:35:46;;;;;;;;;;;;;;;19.98;52.39;99305.09;2094046;28;20134;-38
2022/01/04 01:36:46;;;;;;;;;;;;;;;19.98;52.36;99304.25;2093785;28;19916;-38
2022/01/04 01:37:47;;;;;;;;;;;;;;;19.97;52.33;99306.16;2090808;28;20204;-39
2022/01/04 01:38:47;;;;;;;;;;;;;;;19.95;52.42;99305.47;2093639;28;20376;-39
2022/01/04 01:39:47;;;;;;;;;;;;;;;19.95;52.49;99300.00;2092563;28;20333;-39
2022/01/04 01:40:49;;;;;;;;;;;;;;;19.93;52.54;99296.56;2086532;28;19971;-38
2022/01/04 01:41:49;;;;;;;;;;;;;;;19.93;52.49;99296.56;2094888;28;19924;-39
2022/01/04 01:42:49;;;;;;;;;;;;;;;19.92;52.46;99300.34;2091701;28;19916;-39
2022/01/04 01:43:49;;;;;;;;;;;;;;;19.90;52.68;99299.66;2088733;28;19935;-38
2022/01/04 01:44:51;;;;;;;;;;;;;;;19.90;52.69;99296.94;2092510;28;19920;-39
2022/01/04 01:45:53;;;;;;;;;;;;;;;19.89;52.73;99297.94;2092904;28;19912;-39
2022/01/04 01:46:53;;;;;;;;;;;;;;;19.88;52.76;99288.88;2093415;28;19943;-39
2022/01/04 01:47:53;;;;;;;;;;;;;;;19.88;52.90;99294.34;2092777;28;20333;-38
2022/01/04 01:48:54;;;;;;;;;;;;;;;19.87;52.82;99287.19;2098566;28;19966;-38
2022/01/04 01:49:54;;;;;;;;;;;;;;;19.87;52.88;99291.81;2093867;28;20591;-39
2022/01/04 01:50:54;;;;;;;;;;;;;;;19.86;52.75;99290.09;2093546;28;20364;-39
2022/01/04 01:51:55;;;;;;;;;;;;;;;19.86;52.77;99290.94;2092885;28;20445;-39
2022/01/04 01:52:55;;;;;;;;;;;;;;;19.85;52.76;99282.94;2096143;28;20271;-38
2022/01/04 01:53:56;;;;;;;;;;;;;;;19.85;52.96;99288.41;2088909;28;19962;-38
2022/01/04 01:54:56;;;;;;;;;;;;;;;19.83;52.83;99280.34;2093493;28;19916;-39
2022/01/04 01:55:57;;;;;;;;;;;;;;;19.83;53.01;99284.97;2092476;28;19951;-38
2022/01/04 01:56:57;;;;;;;;;;;;;;;19.82;53.00;99275.94;2092005;28;20303;-38
2022/01/04 01:57:58;;;;;;;;;;;;;;;19.82;53.04;99281.41;2100484;28;19958;-39
2022/01/04 01:58:58;;;;;;;;;;;;;;;19.82;52.90;99277.78;2079684;28;19917;-39
2022/01/04 01:59:59;;;;;;;;;;;;;;;19.82;52.89;99273.19;2088806;28;19916;-39
2022/01/04 02:00:59;;;;;;;;;;;;;;;19.84;52.85;99275.72;2093602;28;20760;-39
2022/01/04 02:01:59;;;;;;;;;;;;;;;19.84;53.01;99270.25;2093321;28;19963;-39
2022/01/04 02:03:02;;;;;;;;;;;;;;;19.85;52.98;99274.72;2093671;28;20018;-39
2022/01/04 02:04:02;;;;;;;;;;;;;;;19.85;52.93;99272.84;2089370;28;19918;-39
2022/01/04 02:05:03;;;;;;;;;;;;;;;19.88;52.87;99277.09;2093626;28;19927;-39
2022/01/04 02:06:04;;;;;;;;;;;;;;;19.87;52.71;99269.94;2091362;28;19975;-39
2022/01/04 02:07:04;;;;;;;;;;;;;;;19.88;52.69;99266.16;2091746;28;20293;-39
2022/01/04 02:08:05;;;;;;;;;;;;;;;19.90;52.66;99275.03;2077462;28;19924;-39
2022/01/04 02:09:05;;;;;;;;;;;;;;;19.91;52.73;99272.13;2079564;28;20377;-39
2022/01/04 02:10:07;;;;;;;;;;;;;;;19.93;52.60;99263.75;2087850;28;20075;-39
2022/01/04 02:11:07;;;;;;;;;;;;;;;19.95;52.67;99267.16;2091203;28;19964;-39
2022/01/04 02:12:09;;;;;;;;;;;;;;;19.97;52.57;99269.75;2093639;28;19904;-39
2022/01/04 02:13:09;;;;;;;;;;;;;;;19.98;52.56;99269.53;2092449;28;19912;-38
2022/01/04 02:14:10;;;;;;;;;;;;;;;19.99;52.48;99268.53;2090422;28;20336;-39
2022/01/04 02:15:12;;;;;;;;;;;;;;;20.01;52.38;99266.44;2093017;28;20138;-39
2022/01/04 02:16:13;;;;;;;;;;;;;;;20.02;52.31;99262.69;2084728;28;20179;-39
2022/01/04 02:17:13;;;;;;;;;;;;;;;20.04;52.29;99257.91;2084236;28;20668;-40
2022/01/04 02:18:13;;;;;;;;;;;;;;;20.06;52.21;99258.59;2085808;28;19952;-39
2022/01/04 02:19:14;;;;;;;;;;;;;;;20.07;52.27;99259.44;2084861;28;19917;-39
2022/01/04 02:20:15;;;;;;;;;;;;;;;20.08;52.30;99251.03;2078835;28;20339;-39
2022/01/04 02:21:16;;;;;;;;;;;;;;;20.08;52.32;99245.56;2084944;28;20246;-39
2022/01/04 02:22:16;;;;;;;;;;;;;;;20.08;52.30;99251.03;2083649;28;19920;-39
2022/01/04 02:23:16;;;;;;;;;;;;;;;20.11;52.16;99250.72;2085385;28;19991;-39
2022/01/04 02:24:17;;;;;;;;;;;;;;;20.11;52.04;99261.66;2086001;28;20203;-39
2022/01/04 02:25:17;;;;;;;;;;;;;;;20.12;51.94;99255.13;2087125;28;19923;-39
2022/01/04 02:26:17;;;;;;;;;;;;;;;20.15;52.05;99255.81;2088885;28;20290;-39
2022/01/04 02:27:18;;;;;;;;;;;;;;;20.17;51.89;99259.22;2088097;28;19916;-39
2022/01/04 02:28:20;;;;;;;;;;;;;;;20.20;51.81;99258.88;2087002;28;19920;-39
2022/01/04 02:29:21;;;;;;;;;;;;;;;20.19;51.87;99251.72;2081042;28;19927;-38
2022/01/04 02:30:21;;;;;;;;;;;;;;;20.20;51.95;99258.88;2085062;28;20676;-39
2022/01/04 02:31:21;;;;;;;;;;;;;;;20.21;51.77;99255.97;2082968;28;19923;-39
2022/01/04 02:32:22;;;;;;;;;;;;;;;20.22;51.96;99246.72;2085144;28;19971;-38
2022/01/04 02:33:22;;;;;;;;;;;;;;;20.24;51.93;99243.81;2083137;28;19955;-39
2022/01/04 02:34:22;;;;;;;;;;;;;;;20.25;51.81;99245.50;2083014;28;19923;-39
2022/01/04 02:35:24;;;;;;;;;;;;;;;20.26;51.76;99242.59;2085768;28;19923;-39
2022/01/04 02:36:24;;;;;;;;;;;;;;;20.28;51.66;99242.41;2082423;28;20602;-39
2022/01/04 02:37:26;;;;;;;;;;;;;;;20.29;51.72;99239.50;2084696;28;19945;-39
2022/01/04 02:38:26;;;;;;;;;;;;;;;20.31;51.68;99245.66;2079222;28;20047;-39
2022/01/04 02:39:27;;;;;;;;;;;;;;;20.31;51.68;99239.34;2078252;28;19940;-39
2022/01/04 02:40:27;;;;;;;;;;;;;;;20.32;51.69;99239.13;2093028;28;19997;-39
2022/01/04 02:41:28;;;;;;;;;;;;;;;20.34;51.61;99230.75;2083025;28;19913;-39
2022/01/04 02:42:28;;;;;;;;;;;;;;;20.35;51.56;99229.72;2083027;28;19911;-39
2022/01/04 02:43:28;;;;;;;;;;;;;;;20.35;51.35;99229.72;2085928;28;20342;-39
2022/01/04 02:44:29;;;;;;;;;;;;;;;20.35;51.58;99221.50;2082084;28;19908;-39
2022/01/04 02:45:29;;;;;;;;;;;;;;;20.36;51.34;99231.44;2086337;28;20282;-39
2022/01/04 02:46:30;;;;;;;;;;;;;;;20.37;51.30;99232.28;2084211;28;19932;-39
2022/01/04 02:47:30;;;;;;;;;;;;;;;20.38;51.53;99228.50;2084075;28;19920;-39
2022/01/04 02:48:30;;;;;;;;;;;;;;;20.36;51.55;99223.22;2085720;28;20190;-39
2022/01/04 02:49:31;;;;;;;;;;;;;;;20.38;51.53;99223.03;2082846;28;19927;-38
2022/01/04 02:50:31;;;;;;;;;;;;;;;20.38;51.44;99223.88;2084939;28;19928;-39
2022/01/04 02:51:31;;;;;;;;;;;;;;;20.38;51.30;99223.88;2082189;28;19938;-39
2022/01/04 02:52:33;;;;;;;;;;;;;;;20.38;51.31;99223.88;2077061;28;22900;-39
2022/01/04 02:53:34;;;;;;;;;;;;;;;20.39;51.31;99225.59;2082839;28;19963;-39
2022/01/04 02:54:34;;;;;;;;;;;;;;;20.39;51.39;99225.59;2085823;28;19939;-39
2022/01/04 02:55:35;;;;;;;;;;;;;;;20.39;51.57;99220.13;2086776;28;19944;-39
2022/01/04 02:56:35;;;;;;;;;;;;;;;20.39;51.46;99222.00;2085684;28;19916;-39
2022/01/04 02:57:35;;;;;;;;;;;;;;;20.39;51.33;99214.66;2083974;28;20044;-39
2022/01/04 02:58:35;;;;;;;;;;;;;;;20.39;51.49;99214.66;2079397;28;19995;-38
2022/01/04 02:59:36;;;;;;;;;;;;;;;20.40;51.33;99210.88;2086174;28;19962;-39
2022/01/04 03:00:36;;;;;;;;;;;;;;;20.40;51.51;99205.41;2083252;28;19912;-39
2022/01/04 03:01:36;;;;;;;;;;;;;;;20.40;51.33;99208.13;2080517;28;19947;-38
2022/01/04 03:02:37;;;;;;;;;;;;;;;20.39;51.29;99206.44;2084562;28;19959;-39
2022/01/04 03:03:37;;;;;;;;;;;;;;;20.41;51.46;99196.16;2081456;28;19948;-39
2022/01/04 03:04:37;;;;;;;;;;;;;;;20.40;51.28;99199.91;2077999;28;19923;-39
2022/01/04 03:05:38;;;;;;;;;;;;;;;20.41;51.49;99198.06;2084084;28;19984;-38
2022/01/04 03:06:38;;;;;;;;;;;;;;;20.40;51.40;99194.44;2084311;28;20220;-38
2022/01/04 03:07:38;;;;;;;;;;;;;;;20.39;51.46;99192.75;2093780;28;19916;-39
2022/01/04 03:08:39;;;;;;;;;;;;;;;20.39;51.41;99184.53;2085067;28;19920;-39
2022/01/04 03:09:39;;;;;;;;;;;;;;;20.40;51.35;99188.97;2085561;28;19955;-38
2022/01/04 03:10:39;;;;;;;;;;;;;;;20.41;51.35;99185.22;2075830;28;19917;-39
2022/01/04 03:11:39;;;;;;;;;;;;;;;20.41;51.41;99184.38;2075343;28;19920;-39
2022/01/04 03:12:42;;;;;;;;;;;;;;;20.41;51.27;99179.75;2087404;28;20200;-39
2022/01/04 03:13:43;;;;;;;;;;;;;;;20.41;51.46;99187.97;2084104;28;20011;-39
2022/01/04 03:14:43;;;;;;;;;;;;;;;20.41;51.40;99185.22;2082727;28;19924;-39
2022/01/04 03:15:44;;;;;;;;;;;;;;;20.40;51.38;99178.03;2084198;28;19908;-39
2022/01/04 03:16:46;;;;;;;;;;;;;;;20.41;51.31;99181.63;2089907;28;19920;-39
2022/01/04 03:17:46;;;;;;;;;;;;;;;20.40;51.59;99177.19;2095110;28;19916;-39
2022/01/04 03:19:07;;;;;;;;;;;;;;;20.40;51.37;99177.19;2090056;28;19916;-39
2022/01/04 03:20:07;;;;;;;;;;;;;;;20.39;51.31;99168.13;2080006;28;20159;-39
2022/01/04 03:21:08;;;;;;;;;;;;;;;20.39;51.42;99165.38;2085695;28;19951;-39
2022/01/04 03:22:08;;;;;;;;;;;;;;;20.39;51.40;99170.84;2092268;28;19941;-38
2022/01/04 03:23:10;;;;;;;;;;;;;;;20.39;51.53;99161.81;2086284;28;20281;-38
2022/01/04 03:24:11;;;;;;;;;;;;;;;20.37;51.43;99161.13;2085423;28;19916;-39
2022/01/04 03:25:12;;;;;;;;;;;;;;;20.36;51.60;99160.28;2091201;28;19920;-39
2022/01/04 03:26:12;;;;;;;;;;;;;;;20.36;51.60;99160.28;2082715;28;19937;-39
2022/01/04 03:27:13;;;;;;;;;;;;;;;20.36;51.42;99157.53;2083954;28;19916;-39
2022/01/04 03:28:16;;;;;;;;;;;;;;;20.35;51.49;99153.09;2089273;28;19916;-39
2022/01/04 03:29:16;;;;;;;;;;;;;;;20.36;51.60;99154.81;2089205;28;19920;-39
2022/01/04 03:30:17;;;;;;;;;;;;;;;20.34;51.54;99152.25;2087252;28;20035;-39
2022/01/04 03:31:17;;;;;;;;;;;;;;;20.35;51.60;99158.56;2091242;28;19916;-39
2022/01/04 03:32:17;;;;;;;;;;;;;;;20.34;51.42;99154.13;2094360;28;20049;-39
2022/01/04 03:33:18;;;;;;;;;;;;;;;20.33;51.45;99156.03;2092488;28;19938;-39
2022/01/04 03:34:18;;;;;;;;;;;;;;;20.33;51.60;99149.66;2087553;28;19995;-38
2022/01/04 03:35:18;;;;;;;;;;;;;;;20.32;51.72;99140.63;2084186;28;19986;-39
2022/01/04 03:36:23;;;;;;;;;;;;;;;20.33;51.69;99150.53;2091668;28;19916;-39
2022/01/04 03:37:24;;;;;;;;;;;;;;;20.33;51.37;99146.94;2093415;28;19912;-39
2022/01/04 03:38:24;;;;;;;;;;;;;;;20.32;51.44;99137.03;2088705;28;20725;-38
2022/01/04 03:39:24;;;;;;;;;;;;;;;20.32;51.74;99137.03;2085907;28;19979;-39
2022/01/04 03:40:25;;;;;;;;;;;;;;;20.33;51.59;99135.97;2088315;28;20315;-39
2022/01/04 03:41:26;;;;;;;;;;;;;;;20.32;51.77;99137.03;2092688;28;19912;-39
2022/01/04 03:42:26;;;;;;;;;;;;;;;20.32;51.55;99142.50;2092353;28;20194;-41
2022/01/04 03:43:27;;;;;;;;;;;;;;;20.31;51.56;99138.06;2098620;28;19961;-39
2022/01/04 03:44:28;;;;;;;;;;;;;;;20.31;51.69;99136.19;2090958;28;19916;-39
2022/01/04 03:45:28;;;;;;;;;;;;;;;20.31;51.72;99132.59;2093366;28;19947;-39
2022/01/04 03:46:28;;;;;;;;;;;;;;;20.31;51.63;99130.72;2091869;28;19912;-39
2022/01/04 03:47:29;;;;;;;;;;;;;;;20.31;51.51;99129.88;2091809;28;20246;-39
2022/01/04 03:48:29;;;;;;;;;;;;;;;20.30;51.61;99129.00;2086246;28;19921;-39
2022/01/04 03:49:29;;;;;;;;;;;;;;;20.31;51.71;99124.38;2085634;28;19916;-39
2022/01/04 03:50:30;;;;;;;;;;;;;;;20.30;51.70;99123.50;2087771;28;19924;-39
2022/01/04 03:51:30;;;;;;;;;;;;;;;20.30;51.86;99117.19;2090643;28;20234;-39
2022/01/04 03:52:30;;;;;;;;;;;;;;;20.31;51.69;99118.91;2092824;28;19980;-39
2022/01/04 03:53:31;;;;;;;;;;;;;;;20.29;51.73;99115.50;2095349;28;19982;-38
2022/01/04 03:54:31;;;;;;;;;;;;;;;20.29;51.58;99112.78;2090900;28;20311;-39
2022/01/04 03:55:31;;;;;;;;;;;;;;;20.30;51.64;99119.94;2092625;28;20301;-38
2022/01/04 03:56:31;;;;;;;;;;;;;;;20.29;51.80;99115.50;2089943;28;19920;-39
2022/01/04 03:57:32;;;;;;;;;;;;;;;20.30;51.83;99114.47;2091349;28;19974;-38
2022/01/04 03:58:32;;;;;;;;;;;;;;;20.30;51.87;99114.47;2093654;28;19912;-39
2022/01/04 03:59:33;;;;;;;;;;;;;;;20.29;51.85;99120.97;2072298;28;20208;-39
2022/01/04 04:00:33;;;;;;;;;;;;;;;20.29;51.86;99110.03;2072195;28;20824;-39
2022/01/04 04:01:33;;;;;;;;;;;;;;;20.29;51.73;99115.50;2092828;28;19916;-39
2022/01/04 04:02:34;;;;;;;;;;;;;;;20.29;51.87;99104.56;2091688;28;19946;-38
2022/01/04 04:03:35;;;;;;;;;;;;;;;20.28;51.95;99102.84;2094837;28;19920;-38
2022/01/04 04:04:35;;;;;;;;;;;;;;;20.27;51.89;99102.00;2094225;28;19923;-39
2022/01/04 04:05:35;;;;;;;;;;;;;;;20.28;51.71;99102.84;2095710;28;19912;-39
2022/01/04 04:06:36;;;;;;;;;;;;;;;20.26;52.12;99105.78;2095586;28;19927;-39
2022/01/04 04:07:36;;;;;;;;;;;;;;;20.28;51.84;99113.78;2091648;28;20334;-39
2022/01/04 04:08:37;;;;;;;;;;;;;;;20.27;51.99;99107.47;2091773;28;19924;-38
2022/01/04 04:09:37;;;;;;;;;;;;;;;20.27;51.74;99115.69;2085263;28;19978;-38
2022/01/04 04:10:37;;;;;;;;;;;;;;;20.26;51.73;99113.09;2083549;28;20491;-39
2022/01/04 04:11:38;;;;;;;;;;;;;;;20.26;51.84;99105.78;2088068;28;19916;-39
2022/01/04 04:12:38;;;;;;;;;;;;;;;20.27;51.87;99099.25;2093584;28;19919;-39
2022/01/04 04:13:38;;;;;;;;;;;;;;;20.26;51.84;99102.16;2092776;28;20000;-39
2022/01/04 04:14:39;;;;;;;;;;;;;;;20.26;52.04;99100.31;2093755;28;19939;-39
2022/01/04 04:15:40;;;;;;;;;;;;;;;20.27;51.98;99095.69;2091284;28;19951;-39
2022/01/04 04:16:40;;;;;;;;;;;;;;;20.26;51.98;99093.94;2095009;28;19920;-39
2022/01/04 04:17:40;;;;;;;;;;;;;;;20.26;51.99;99099.44;2093878;28;20268;-38
2022/01/04 04:18:41;;;;;;;;;;;;;;;20.26;51.96;99093.94;2090865;28;20246;-39
2022/01/04 04:19:43;;;;;;;;;;;;;;;20.28;51.98;99097.38;2092218;28;21084;-38
2022/01/04 04:20:43;;;;;;;;;;;;;;;20.26;51.84;99093.94;2090750;28;19930;-39
2022/01/04 04:21:44;;;;;;;;;;;;;;;20.28;51.96;99091.91;2093946;28;19916;-39
2022/01/04 04:22:44;;;;;;;;;;;;;;;20.28;51.92;99102.84;2095772;28;19981;-39
2022/01/04 04:23:44;;;;;;;;;;;;;;;20.28;51.89;99097.38;2098749;28;20270;-39
2022/01/04 04:24:45;;;;;;;;;;;;;;;20.29;51.98;99090.88;2100046;28;20260;-39
2022/01/04 04:25:46;;;;;;;;;;;;;;;20.28;51.81;99089.16;2092588;28;19943;-39
2022/01/04 04:26:46;;;;;;;;;;;;;;;20.28;51.86;99089.16;2092613;28;20721;-39
2022/01/04 04:27:46;;;;;;;;;;;;;;;20.28;51.96;99089.16;2093447;28;19916;-39
2022/01/04 04:28:47;;;;;;;;;;;;;;;20.27;52.02;99084.72;2092062;28;19920;-39
2022/01/04 04:29:47;;;;;;;;;;;;;;;20.27;51.94;99082.84;2092897;28;20285;-39
2022/01/04 04:30:47;;;;;;;;;;;;;;;20.28;51.75;99091.91;2093246;28;20245;-39
2022/01/04 04:31:47;;;;;;;;;;;;;;;20.29;51.87;99079.94;2093331;28;19963;-39
2022/01/04 04:32:48;;;;;;;;;;;;;;;20.29;51.68;99082.66;2098441;28;19962;-39
2022/01/04 04:33:48;;;;;;;;;;;;;;;20.28;51.91;99080.94;2096182;28;19922;-39
2022/01/04 04:34:48;;;;;;;;;;;;;;;20.29;51.77;99080.78;2098332;28;19922;-39
2022/01/04 04:35:49;;;;;;;;;;;;;;;20.28;51.83;99079.06;2092979;28;20453;-39
2022/01/04 04:36:49;;;;;;;;;;;;;;;20.28;51.81;99075.47;2095094;28;19920;-38
2022/01/04 04:37:49;;;;;;;;;;;;;;;20.29;51.89;99077.19;2095030;28;19915;-39
2022/01/04 04:38:50;;;;;;;;;;;;;;;20.29;51.93;99077.19;2103906;28;19961;-39
2022/01/04 04:39:50;;;;;;;;;;;;;;;20.28;51.82;99076.31;2092869;28;19959;-39
2022/01/04 04:40:51;;;;;;;;;;;;;;;20.28;51.91;99080.94;2092773;28;19927;-39
2022/01/04 04:41:52;;;;;;;;;;;;;;;20.29;51.83;99074.47;2099481;28;19915;-39
2022/01/04 04:42:52;;;;;;;;;;;;;;;20.27;51.83;99074.63;2091082;28;20326;-39
2022/01/04 04:43:54;;;;;;;;;;;;;;;20.27;51.74;99077.38;2094043;28;19912;-39
2022/01/04 04:44:54;;;;;;;;;;;;;;;20.27;51.79;99080.09;2092055;28;19916;-39
2022/01/04 04:45:55;;;;;;;;;;;;;;;20.27;51.83;99077.38;2094796;28;19920;-39
2022/01/04 04:46:55;;;;;;;;;;;;;;;20.27;51.94;99074.63;2095484;28;19922;-39
2022/01/04 04:47:56;;;;;;;;;;;;;;;20.28;51.81;99078.22;2094575;28;19907;-39
2022/01/04 04:48:56;;;;;;;;;;;;;;;20.27;51.96;99074.63;2091401;28;19916;-39
2022/01/04 04:49:57;;;;;;;;;;;;;;;20.26;51.74;99066.59;2096667;28;19955;-39
2022/01/04 04:50:57;;;;;;;;;;;;;;;20.27;51.96;99073.78;2095532;28;19916;-39
2022/01/04 04:51:59;;;;;;;;;;;;;;;20.28;51.81;99067.25;2093147;28;19923;-39
2022/01/04 04:53:00;;;;;;;;;;;;;;;20.26;51.97;99061.13;2085952;28;19984;-38
2022/01/04 04:54:00;;;;;;;;;;;;;;;20.26;51.84;99062.00;2090352;28;19916;-39
2022/01/04 04:55:00;;;;;;;;;;;;;;;20.26;51.90;99069.31;2096372;28;19971;-39
2022/01/04 04:56:01;;;;;;;;;;;;;;;20.25;51.99;99064.91;2097675;28;20242;-39
2022/01/04 04:57:01;;;;;;;;;;;;;;;20.27;52.03;99071.03;2092215;28;20103;-39
2022/01/04 04:58:02;;;;;;;;;;;;;;;20.25;51.83;99062.16;2093194;28;20265;-39
2022/01/04 04:59:02;;;;;;;;;;;;;;;20.25;52.00;99064.91;2093204;28;20105;-39
2022/01/04 05:00:03;;;;;;;;;;;;;;;20.25;52.00;99059.44;2092642;28;19920;-39
2022/01/04 05:01:03;;;;;;;;;;;;;;;20.25;51.83;99053.94;2096009;28;20151;-39
2022/01/04 05:02:07;;;;;;;;;;;;;;;20.24;51.80;99050.38;2091783;28;19963;-39
2022/01/04 05:03:07;;;;;;;;;;;;;;;20.25;51.92;99048.47;2091346;28;20050;-39
2022/01/04 05:04:07;;;;;;;;;;;;;;;20.25;51.90;99059.44;2093817;28;19930;-39
2022/01/04 05:05:08;;;;;;;;;;;;;;;20.23;51.79;99056.84;2097060;28;19959;-39
2022/01/04 05:06:08;;;;;;;;;;;;;;;20.24;52.00;99055.84;2095973;28;19919;-38
2022/01/04 05:07:08;;;;;;;;;;;;;;;20.25;51.96;99056.69;2099588;28;19915;-40
2022/01/04 05:08:10;;;;;;;;;;;;;;;20.23;51.86;99056.84;2091061;28;20063;-38
2022/01/04 05:09:10;;;;;;;;;;;;;;;20.24;51.97;99055.00;2095659;28;20389;-39
2022/01/04 05:10:10;;;;;;;;;;;;;;;20.23;51.95;99053.28;2087838;28;19919;-39
2022/01/04 05:11:11;;;;;;;;;;;;;;;20.23;52.03;99056.84;2091166;28;19911;-39
2022/01/04 05:12:11;;;;;;;;;;;;;;;20.23;51.96;99056.84;2095211;28;19918;-39
2022/01/04 05:13:11;;;;;;;;;;;;;;;20.24;51.89;99055.00;2089013;28;19984;-39
2022/01/04 05:14:11;;;;;;;;;;;;;;;20.23;52.06;99054.13;2092172;28;19961;-39
2022/01/04 05:15:12;;;;;;;;;;;;;;;20.22;52.10;99048.84;2093290;28;19930;-39
2022/01/04 05:16:12;;;;;;;;;;;;;;;20.22;51.86;99043.38;2093928;28;19935;-38
2022/01/04 05:17:13;;;;;;;;;;;;;;;20.22;51.86;99044.22;2103322;28;19919;-39
2022/01/04 05:18:13;;;;;;;;;;;;;;;20.21;52.12;99036.19;2094201;28;19943;-39
2022/01/04 05:19:13;;;;;;;;;;;;;;;20.22;52.08;99032.44;2089389;28;20767;-39
2022/01/04 05:20:15;;;;;;;;;;;;;;;20.21;51.95;99025.25;2095411;28;19916;-39